Belle Valley, Ohio
Current Conditions -  °F | °C
As of 5:53 PM on Monday 20 Oct 2014 (Local Time) from KZZV Reporting Station
Overcast Overcast  
Wind Chill: 55°   Ceiling: 4900
Heat Index: 55°   Visibility: 10mi
Dew Point: 44°   Wind: 7mph
Humidity: 67%   Direction: 230°SW
Pressure: 29.88"   Gusts: NA
Location:  39.79°N, 81.56°W
Report Text: KZZV 202153Z AUTO 23006KT 10SM BKN049 OVC060 13/07 A2988 RMK AO2 RAB05E48 SLP120 P0000 T01280067
Loading
Personal Weather Stations






























Interactive Weather Map
Tropical Storm Tracking
New forecast layout! Learn more

10-Day Weather Forecast

Advertisements
Track Severe Weather on mobile